Flight Track Log - Related Links

Times and Time Zones

All times are in EDT time to prevent confusion due to time zone crossing. See the UAL3744 flight status page for this flight to view local times or setup timezone preferences in your user account.

Time Position Orientation Groundspeed Altitude Reporting Facility
EDT Latitude Longitude Course Direction KTS MPH feet Rate Location/Type
Sun 05:56:53 AM 35.2242 -80.9319 72° East 148 170 1,400  Level Atlanta Center
Sun 05:57:47 AM 35.2522 -80.8903 50° Northeast 171 197 2,900 2,182 Climbing Atlanta Center
Sun 05:59:16 AM 35.2783 -80.7747 74° East 252 290 6,600 2,416 Climbing Atlanta Center
Sun 06:00:00 AM 35.2407 -80.5376 30° Northeast  Level FlightAware Approximate
Sun 06:00:16 AM 35.2947 -80.6800 78° East 271 312 8,900  Level Atlanta Center
Sun 06:01:00 AM 35.3337 -80.4652 72° East  Level FlightAware Approximate
Sun 06:01:16 AM 35.3147 -80.5747 77° East 297 342 10,900  Level Atlanta Center
Sun 06:02:00 AM 35.3705 -80.3260 72° East  Level FlightAware Approximate
Sun 06:02:16 AM 35.3364 -80.4592 77° East 333 383 13,400  Level Atlanta Center
Sun 06:04:04 AM 35.3994 -80.2550 69° East 366 421 16,100 1,679 Climbing Washington Center
Sun 06:05:04 AM 35.4378 -80.1325 69° East 379 436 18,100 1,950 Climbing Washington Center
Sun 06:06:04 AM 35.4719 -79.9942 73° East 390 449 20,000 1,850 Climbing Washington Center
Sun 06:07:04 AM 35.5081 -79.8608 72° East 395 455 21,800 1,750 Climbing Washington Center
Sun 06:08:04 AM 35.5422 -79.7247 73° East 401 461 23,500 1,600 Climbing Washington Center
Sun 06:09:04 AM 35.5736 -79.5989 73° East 421 484 25,000 1,500 Climbing Washington Center
Sun 06:10:04 AM 35.6142 -79.4397 73° East 440 506 26,500 1,000 Climbing Washington Center
Sun 06:11:04 AM 35.6992 -79.3314 46° Northeast 424 488 27,000 250 Climbing Washington Center
Sun 06:12:04 AM 35.8103 -79.2444 32° Northeast 445 512 27,000  Level Washington Center
Sun 06:13:04 AM 35.9236 -79.1522 33° Northeast 462 532 27,000  Level Washington Center
Sun 06:14:04 AM 36.0264 -79.0694 33° Northeast 475 547 27,000  Level Washington Center
Sun 06:15:04 AM 36.1394 -78.9767 34° Northeast 485 558 27,000  Level Washington Center
Sun 06:16:04 AM 36.2567 -78.8864 32° Northeast 490 564 27,000  Level Washington Center
Sun 06:17:04 AM 36.3700 -78.7933 33° Northeast 495 570 27,000  Level Washington Center
Sun 06:18:04 AM 36.4831 -78.6997 34° Northeast 490 564 27,000  Level Washington Center
Sun 06:19:04 AM 36.5958 -78.6086 33° Northeast 490 564 27,000  Level Washington Center
Sun 06:20:04 AM 36.7217 -78.5019 34° Northeast 490 564 27,000  Level Washington Center
Sun 06:21:04 AM 36.8217 -78.4200 33° Northeast 495 570 27,000  Level Washington Center
Sun 06:22:04 AM 36.9236 -78.3356 34° Northeast 495 570 27,000  Level Washington Center
Sun 06:23:04 AM 37.0514 -78.2306 33° Northeast 495 570 27,000  Level Washington Center
Sun 06:24:04 AM 37.1744 -78.1306 33° Northeast 490 564 27,000  Level Washington Center
Sun 06:25:04 AM 37.2850 -78.0350 35° Northeast 490 564 27,000 -300 Level Washington Center
Sun 06:26:04 AM 37.4017 -77.9342 34° Northeast 490 564 26,400 -1,700 Descending Washington Center
Sun 06:27:04 AM 37.5161 -77.8436 32° Northeast 495 570 23,600 -2,850 Descending Washington Center
Sun 06:28:04 AM 37.6300 -77.7708 27° Northeast 477 549 20,700 -2,800 Descending Washington Center
Sun 06:29:04 AM 37.7439 -77.7033 25° Northeast 452 520 18,000 -2,450 Descending Washington Center
Sun 06:30:04 AM 37.8514 -77.6406 25° Northeast 437 503 15,800 -2,450 Descending Washington Center
Sun 06:31:04 AM 37.9522 -77.5828 24° Northeast 411 473 13,100 -2,600 Descending Washington Center
Sun 06:32:04 AM 38.0492 -77.5300 23° Northeast 387 445 10,600 -1,550 Descending Washington Center
Sun 06:33:04 AM 38.1356 -77.4767 26° Northeast 365 420 10,000 -300 Descending Washington Center
Sun 06:34:04 AM 38.2114 -77.4308 25° Northeast 323 372 10,000 -350 Level Washington Center
Sun 06:35:04 AM 38.2847 -77.3931 22° Northeast 298 343 9,300  Descending Washington Center
Sun 06:36:04 AM 38.3553 -77.4292 338° Northwest 256 295 10,000 -1,300 Climbing Washington Center
Sun 06:37:04 AM 38.4192 -77.4706 333° Northwest 249 287 6,700 -2,450 Descending Washington Center
Sun 06:38:04 AM 38.4900 -77.4722 359° North 249 287 5,100 -850 Descending Washington Center
Sun 06:39:04 AM 38.5608 -77.4714 North 249 287 5,000 -150 Descending Washington Center
Sun 06:40:04 AM 38.6319 -77.4681 North 249 287 4,800 -608 Descending Washington Center
Sun 06:40:23 AM 38.6500 -77.4667 North 247 284 4,200 -532 Descending Potomac TRACON
Sun 06:41:23 AM 38.7167 -77.4667 360° North 236 272 4,100 -200 Descending Potomac TRACON
Sun 06:42:23 AM 38.7833 -77.4667 360° North 173 199 3,800 -600 Descending Potomac TRACON
Sun 06:43:23 AM 38.8167 -77.4667 360° North 133 153 2,900 -737 Descending Potomac TRACON
Sun 06:44:17 AM 38.8500 -77.4667 360° North 126 145 2,400 -556 Descending Potomac TRACON

Login

Don't have an account? Register now (free) for customized features, flight alerts, and more!